createdAt,value
2019-05-05T00:03:48.937Z,3.90
2019-05-05T00:08:39.826Z,3.70
2019-05-05T00:13:30.714Z,3.50
2019-05-05T00:18:22.346Z,3.70
2019-05-05T00:23:14.569Z,4.30
2019-05-05T00:28:05.139Z,4.30
2019-05-05T00:32:56.709Z,4.00
2019-05-05T00:37:47.595Z,4.00
2019-05-05T00:42:38.495Z,3.70
2019-05-05T00:47:34.508Z,3.50
2019-05-05T00:52:25.291Z,3.20
2019-05-05T00:57:16.263Z,3.10
2019-05-05T01:02:08.072Z,2.90
2019-05-05T01:06:58.994Z,3.20
2019-05-05T01:11:49.912Z,3.80
2019-05-05T01:16:40.811Z,3.90
2019-05-05T01:21:31.703Z,3.70
2019-05-05T01:26:24.683Z,3.40
2019-05-05T01:31:14.671Z,3.20
2019-05-05T01:36:04.714Z,2.90
2019-05-05T01:41:01.240Z,2.70
2019-05-05T01:45:52.146Z,2.60
2019-05-05T01:50:45.115Z,2.50
2019-05-05T01:55:34.684Z,3.00
2019-05-05T02:00:25.439Z,3.50
2019-05-05T02:05:15.879Z,3.50
2019-05-05T02:10:06.777Z,3.20
2019-05-05T02:14:58.433Z,2.70
2019-05-05T02:19:49.323Z,2.70
2019-05-05T02:24:40.238Z,2.50
2019-05-05T02:29:35.399Z,2.30
2019-05-05T02:34:26.015Z,2.20
2019-05-05T02:39:16.927Z,2.20
2019-05-05T02:44:07.826Z,2.80
2019-05-05T02:49:00.136Z,3.00
2019-05-05T02:53:51.029Z,2.90
2019-05-05T02:58:41.939Z,2.70
2019-05-05T03:03:34.360Z,2.50
2019-05-05T03:08:24.345Z,2.20
2019-05-05T03:13:14.846Z,2.10
2019-05-05T03:18:05.731Z,1.90
2019-05-05T03:22:56.617Z,1.70
2019-05-05T03:27:48.255Z,2.30
2019-05-05T03:32:39.169Z,2.30
2019-05-05T03:37:30.804Z,2.60
2019-05-05T03:42:24.486Z,2.40
2019-05-05T03:47:14.900Z,2.10
2019-05-05T03:52:05.868Z,2.00
2019-05-05T03:57:03.523Z,1.80
2019-05-05T04:01:54.578Z,1.60
2019-05-05T04:06:44.902Z,1.50
2019-05-05T04:11:36.540Z,1.30
2019-05-05T04:16:28.174Z,1.70
2019-05-05T04:21:30.386Z,2.40
2019-05-05T04:26:10.731Z,2.40
2019-05-05T04:31:04.166Z,2.20
2019-05-05T04:35:54.558Z,2.20
2019-05-05T04:40:44.223Z,2.00
2019-05-05T04:45:35.136Z,1.80
2019-05-05T04:50:26.776Z,1.60
2019-05-05T04:55:18.413Z,1.60
2019-05-05T05:00:09.311Z,1.50
2019-05-05T05:05:00.938Z,1.80
2019-05-05T05:09:53.865Z,1.80
2019-05-05T05:14:44.108Z,2.50
2019-05-05T05:19:34.499Z,2.80
2019-05-05T05:24:25.405Z,2.80
2019-05-05T05:29:16.308Z,2.70
2019-05-05T05:34:07.213Z,2.60
2019-05-05T05:38:58.110Z,2.60
2019-05-05T05:49:13.520Z,2.60
2019-05-05T05:54:04.022Z,2.80
2019-05-05T05:58:54.978Z,2.80
2019-05-05T06:03:45.874Z,3.40
2019-05-05T06:08:37.511Z,4.00
2019-05-05T06:13:29.146Z,3.90
2019-05-05T06:18:20.770Z,3.90
2019-05-05T06:23:14.449Z,3.80
2019-05-05T06:28:04.292Z,3.80
2019-05-05T06:32:54.619Z,3.80
2019-05-05T06:37:51.527Z,3.90
2019-05-05T06:42:45.095Z,4.00
2019-05-05T06:47:36.731Z,4.70
2019-05-05T06:52:41.354Z,5.40
2019-05-05T06:57:19.282Z,5.30
2019-05-05T07:02:10.913Z,5.40
2019-05-05T07:07:02.540Z,5.40
2019-05-05T07:11:54.924Z,5.50
2019-05-05T07:16:45.827Z,5.50
2019-05-05T07:21:37.458Z,5.80
2019-05-05T07:26:29.110Z,6.00
2019-05-05T07:31:20.734Z,6.50
2019-05-05T07:41:33.943Z,7.40
2019-05-05T07:46:24.159Z,7.70
2019-05-05T07:51:14.281Z,7.70
2019-05-05T07:56:07.509Z,7.70
2019-05-05T08:00:55.655Z,7.60
2019-05-05T08:05:46.551Z,7.70
2019-05-05T08:10:38.178Z,7.90
2019-05-05T08:15:29.075Z,7.90
2019-05-05T08:20:29.809Z,8.40
2019-05-05T08:25:34.491Z,9.00
2019-05-05T08:30:20.175Z,9.00
2019-05-05T08:35:11.836Z,8.90
2019-05-05T08:40:04.306Z,8.90
2019-05-05T08:44:54.419Z,8.80
2019-05-05T08:49:45.314Z,8.90
2019-05-05T08:54:36.219Z,8.90
2019-05-05T08:59:27.872Z,9.80
2019-05-05T09:04:18.763Z,9.80
2019-05-05T09:09:09.664Z,9.90
2019-05-05T09:14:00.550Z,9.90
2019-05-05T09:18:56.401Z,9.80
2019-05-05T09:23:58.936Z,9.80
2019-05-05T09:28:44.642Z,9.80
2019-05-05T09:33:35.488Z,9.80
2019-05-05T09:38:26.389Z,10.10
2019-05-05T09:43:17.291Z,10.70
2019-05-05T09:48:09.083Z,10.70
2019-05-05T09:52:59.994Z,10.70
2019-05-05T09:57:50.888Z,10.60
2019-05-05T10:02:43.967Z,10.60
2019-05-05T10:07:34.543Z,10.70
2019-05-05T10:12:23.642Z,10.70
2019-05-05T10:17:14.621Z,11.30
2019-05-05T10:22:05.520Z,11.60
2019-05-05T10:26:58.616Z,11.50
2019-05-05T10:31:47.401Z,11.40
2019-05-05T10:36:39.040Z,11.40
2019-05-05T10:41:29.938Z,11.30
2019-05-05T10:46:20.851Z,11.50
2019-05-05T10:51:11.734Z,11.70
2019-05-05T10:56:04.441Z,12.30
2019-05-05T11:00:54.478Z,12.30
2019-05-05T11:05:45.032Z,12.10
2019-05-05T11:10:35.379Z,11.90
2019-05-05T11:15:26.292Z,11.80
2019-05-05T11:20:17.295Z,11.90
2019-05-05T11:25:08.958Z,13.10
2019-05-05T11:30:06.003Z,13.10
2019-05-05T11:34:57.718Z,13.30
2019-05-05T11:39:49.365Z,13.30
2019-05-05T11:44:41.099Z,13.30
2019-05-05T11:49:33.668Z,13.20
2019-05-05T11:54:24.580Z,13.20
2019-05-05T11:59:14.633Z,13.50
2019-05-05T12:04:05.529Z,14.00
2019-05-05T12:08:56.436Z,14.00
2019-05-05T12:13:47.343Z,13.90
2019-05-05T12:18:38.999Z,13.70
2019-05-05T12:23:29.899Z,13.70
2019-05-05T12:28:37.903Z,13.80
2019-05-05T12:33:29.566Z,15.10
2019-05-05T12:38:20.463Z,15.10
2019-05-05T12:43:14.082Z,15.70
2019-05-05T12:48:06.586Z,15.70
2019-05-05T12:52:57.612Z,15.90
2019-05-05T12:57:49.248Z,16.30
2019-05-05T13:02:40.894Z,16.70
2019-05-05T13:07:33.830Z,16.60
2019-05-05T13:12:24.045Z,16.60
2019-05-05T13:17:14.436Z,16.50
2019-05-05T13:22:11.659Z,16.40
2019-05-05T13:27:08.711Z,16.20
2019-05-05T13:31:54.434Z,16.20
2019-05-05T13:36:44.616Z,16.50
2019-05-05T13:41:35.516Z,16.50
2019-05-05T13:46:27.163Z,16.10
2019-05-05T13:51:18.050Z,16.10
2019-05-05T13:56:12.375Z,15.90
2019-05-05T14:00:59.854Z,16.00
2019-05-05T14:05:50.738Z,16.30
2019-05-05T14:10:41.639Z,16.30
2019-05-05T14:15:34.111Z,15.80
2019-05-05T14:20:24.208Z,15.80
2019-05-05T14:25:16.075Z,15.80
2019-05-05T14:30:06.958Z,16.00
2019-05-05T14:35:01.466Z,16.60
2019-05-05T14:39:54.403Z,16.60
2019-05-05T14:44:45.602Z,16.40
2019-05-05T14:49:36.503Z,16.30
2019-05-05T14:54:27.404Z,16.40
2019-05-05T14:59:18.307Z,16.50
2019-05-05T15:04:09.945Z,17.30
2019-05-05T15:09:03.849Z,17.10
2019-05-05T15:13:54.080Z,17.00
2019-05-05T15:18:43.447Z,16.80
2019-05-05T15:23:34.554Z,16.50
2019-05-05T15:28:25.299Z,16.20
2019-05-05T15:33:16.403Z,16.20
2019-05-05T15:38:07.343Z,16.50
2019-05-05T15:42:58.253Z,16.40
2019-05-05T15:47:49.141Z,16.10
2019-05-05T15:52:40.050Z,15.90
2019-05-05T15:57:33.443Z,15.70
2019-05-05T16:02:24.020Z,15.70
2019-05-05T16:07:13.894Z,16.10
2019-05-05T16:12:04.442Z,15.90
2019-05-05T16:16:56.098Z,15.60
2019-05-05T16:21:50.249Z,15.30
2019-05-05T16:26:41.146Z,15.00
2019-05-05T16:31:34.111Z,14.90
2019-05-05T16:36:24.336Z,15.30
2019-05-05T16:41:15.448Z,15.40
2019-05-05T16:46:05.026Z,15.20
2019-05-05T16:50:55.910Z,14.80
2019-05-05T16:55:47.747Z,14.50
2019-05-05T17:00:38.662Z,14.30
2019-05-05T17:05:29.629Z,14.40
2019-05-05T17:10:20.646Z,14.80
2019-05-05T17:15:17.560Z,14.60
2019-05-05T17:20:10.419Z,14.30
2019-05-05T17:25:01.337Z,14.00
2019-05-05T17:29:53.606Z,13.80
2019-05-05T17:34:44.877Z,13.80
2019-05-05T17:39:34.545Z,14.10
2019-05-05T17:44:27.019Z,14.10
2019-05-05T17:49:26.768Z,13.80
2019-05-05T17:54:15.584Z,13.20
2019-05-05T17:59:06.484Z,13.20
2019-05-05T18:03:57.397Z,13.10
2019-05-05T18:14:12.006Z,13.40
2019-05-05T18:19:04.496Z,13.20
2019-05-05T18:23:54.578Z,12.80
2019-05-05T18:28:48.088Z,12.30
2019-05-05T18:33:36.479Z,12.20
2019-05-05T18:38:27.392Z,12.40
2019-05-05T18:43:19.076Z,12.50
2019-05-05T18:48:10.689Z,12.50
2019-05-05T18:53:01.583Z,12.10
2019-05-05T18:57:54.146Z,11.40
2019-05-05T19:02:48.833Z,11.20
2019-05-05T19:07:54.812Z,11.10
2019-05-05T19:12:36.758Z,11.40
2019-05-05T19:17:28.885Z,11.60
2019-05-05T19:22:18.603Z,11.30
2019-05-05T19:27:09.511Z,10.80
2019-05-05T19:32:00.402Z,10.50
2019-05-05T19:36:54.465Z,9.90
2019-05-05T19:41:44.304Z,9.90
2019-05-05T19:46:34.677Z,10.20
2019-05-05T19:51:24.840Z,10.30
2019-05-05T19:56:15.746Z,9.90
2019-05-05T20:01:06.656Z,9.60
2019-05-05T20:05:57.556Z,9.20
2019-05-05T20:10:49.200Z,8.70
2019-05-05T20:15:45.290Z,8.70
2019-05-05T20:20:36.183Z,8.80
2019-05-05T20:25:27.156Z,9.20
2019-05-05T20:30:18.791Z,8.70
2019-05-05T20:35:14.722Z,8.30
2019-05-05T20:40:04.072Z,8.00
2019-05-05T20:44:55.685Z,7.80
2019-05-05T20:49:46.606Z,7.80
2019-05-05T20:54:37.505Z,7.60
2019-05-05T20:59:31.019Z,8.00
2019-05-05T21:04:19.350Z,8.30
2019-05-05T21:09:10.248Z,8.10
2019-05-05T21:14:03.882Z,7.50
2019-05-05T21:18:53.897Z,7.40
2019-05-05T21:23:43.934Z,7.20
2019-05-05T21:28:34.795Z,7.00
2019-05-05T21:33:25.707Z,7.00
2019-05-05T21:38:16.623Z,7.50
2019-05-05T21:43:07.528Z,7.60
2019-05-05T21:47:58.435Z,7.40
2019-05-05T21:52:49.331Z,7.10
2019-05-05T21:57:47.011Z,6.60
2019-05-05T22:02:38.650Z,6.40
2019-05-05T22:07:30.282Z,6.50
2019-05-05T22:12:24.130Z,7.10
2019-05-05T22:17:14.610Z,7.10
2019-05-05T22:22:05.569Z,7.10
2019-05-05T22:26:56.482Z,6.90
2019-05-05T22:31:47.370Z,6.60
2019-05-05T22:36:38.286Z,6.40
2019-05-05T22:41:29.195Z,6.20
2019-05-05T22:46:20.099Z,6.00
2019-05-05T22:51:10.991Z,6.20
2019-05-05T22:56:03.891Z,6.80
2019-05-05T23:00:54.862Z,6.70
2019-05-05T23:05:48.071Z,6.70
2019-05-05T23:10:39.702Z,6.30
2019-05-05T23:15:31.335Z,6.10
2019-05-05T23:20:31.122Z,6.00
2019-05-05T23:25:24.013Z,6.00
2019-05-05T23:30:15.724Z,6.00
2019-05-05T23:35:03.865Z,6.60
2019-05-05T23:39:55.494Z,6.70
2019-05-05T23:44:46.423Z,6.60
2019-05-05T23:49:37.316Z,6.40
2019-05-05T23:54:28.211Z,6.20
2019-05-05T23:59:19.914Z,5.90
